Portada
METAR-TAF:

METAR-TAF

Aeroports :

Aeroport de Santiago de Compostel·la

Santiago de Compostel·la, Espanya

latitud: 42-54N, longitud: 008-26W, altitud: 370 m

Observació

L'informe es va fer fa 24 minuts, a les 05:00 UTC
Vent 3 kt del Est, variant entre Nord i Est/Sud-Est
Temperatura 5°C
Humitat 93%
Pressió 1029 hPa
Visibilitat 10 km o més
sense núvols per sota de 1500 mi sense presència de cumulonimbus.

METAR: LEST 200500Z 08003KT 360V120 CAVOK 05/04 Q1029 NOSIG

Hora: 06:24 (05:24 UTC)

Pronòstic

L'informe es va fer fa 6 hores i 24 minuts, a les 23:00 UTC
Pronòstic vàlid del 20 a les 00 UTC al 20 a les 24 UTC
Vent 7 kt del Nord-Est
Visibilitat 10 km o més
sense núvols per sota de 1500 mi sense presència de cumulonimbus.
Probabilitat 30% :
Temporalment
l' 20 a les 03 UTC al 20 a les 09 UTC
Visibilitat: 1500 m
boira en bancs

TAF: LEST 192300Z 2000/2024 05007KT CAVOK TX16/2015Z TN04/2007Z PROB30 TEMPO 2003/2009 1500 BCFG

Observacions i pronòstics meteorològics de més de 4000 aeroports (METAR i TAF).

Les estacions disponibles són els punts grocs i vermells al mapa.

Posi el ratolí al punt desitjat per veure el nom de l'estació.

Feu clic per veure les observacions i els pronòstics meteorològics.

Per canviar el mapa: feu clic els botons verds amb una creu de color negre per apropar; al botó verd amb un guió per allunyar la imatge; o en les fletxes verdes per a mapes adjacents.


METAR-TAF: